Time;durP1;ratioP1;P1;durP2;ratioP2;P2;SDS_P1;SDS_P2;PMS_P1;PMS_P2;Temp;Humidity;BMP_temperature;BMP_pressure;BME280_temperature;BME280_humidity;BME280_pressure;Samples;Min_cycle;Max_cycle;Signal;HPM_P1;HPM_P2
2021/07/27 00:02:26;;;;;;;16.50;9.60;;;19.10;99.90;;;;;;5119533;28;20043;-82
2021/07/27 00:04:56;;;;;;;19.15;10.00;;;19.00;99.90;;;;;;5107967;28;20055;-81
2021/07/27 00:07:27;;;;;;;21.80;9.63;;;19.10;99.90;;;;;;5119053;28;20039;-82
2021/07/27 00:09:56;;;;;;;17.27;9.25;;;19.10;99.90;;;;;;5122563;28;20036;-82
2021/07/27 00:12:24;;;;;;;24.15;9.15;;;19.10;99.90;;;;;;5117400;28;20048;-81
2021/07/27 00:14:55;;;;;;;21.73;10.40;;;19.00;99.90;;;;;;5120642;28;20059;-82
2021/07/27 00:17:26;;;;;;;22.30;10.25;;;19.10;99.90;;;;;;5121642;28;20062;-82
2021/07/27 00:19:56;;;;;;;19.45;8.90;;;19.10;99.90;;;;;;5098354;28;20048;-81
2021/07/27 00:22:25;;;;;;;16.80;8.23;;;19.10;99.90;;;;;;5120787;28;20058;-81
2021/07/27 00:24:53;;;;;;;16.15;8.05;;;19.00;99.90;;;;;;5119243;28;20040;-82
2021/07/27 00:27:21;;;;;;;17.50;9.05;;;19.10;99.90;;;;;;5120789;28;20047;-82
2021/07/27 00:29:50;;;;;;;21.65;9.02;;;18.80;99.90;;;;;;5106614;28;20036;-81
2021/07/27 00:32:19;;;;;;;14.77;7.50;;;19.10;99.90;;;;;;5118991;28;20761;-82
2021/07/27 00:34:47;;;;;;;17.25;9.15;;;19.10;99.90;;;;;;5119675;28;20047;-81
2021/07/27 00:37:17;;;;;;;14.32;7.88;;;19.20;99.90;;;;;;5121480;28;20055;-82
2021/07/27 00:39:45;;;;;;;22.23;8.23;;;19.20;99.90;;;;;;5122086;28;20036;-81
2021/07/27 00:42:14;;;;;;;20.45;9.00;;;19.10;99.90;;;;;;5097360;28;20048;-82
2021/07/27 00:44:44;;;;;;;22.00;9.68;;;19.20;99.90;;;;;;5120045;28;20054;-81
2021/07/27 00:47:12;;;;;;;16.52;8.55;;;19.20;99.90;;;;;;5104074;28;20404;-81
2021/07/27 00:49:40;;;;;;;14.65;8.38;;;19.10;99.90;;;;;;5104112;28;20054;-80
2021/07/27 00:52:09;;;;;;;17.77;8.85;;;19.20;99.90;;;;;;5122276;28;20048;-82
2021/07/27 00:54:38;;;;;;;20.70;8.85;;;19.20;99.90;;;;;;5118563;28;20236;-82
2021/07/27 00:57:06;;;;;;;19.20;8.30;;;19.20;99.90;;;;;;5112095;28;20629;-82
2021/07/27 00:59:35;;;;;;;17.45;8.20;;;19.20;99.90;;;;;;5125086;28;20043;-81
2021/07/27 01:02:03;;;;;;;14.02;7.45;;;19.20;99.90;;;;;;5120882;28;20048;-82
2021/07/27 01:04:32;;;;;;;19.73;8.65;;;19.20;99.90;;;;;;5123851;28;20043;-82
2021/07/27 01:07:00;;;;;;;18.95;8.45;;;19.20;99.90;;;;;;5101444;28;20044;-81
2021/07/27 01:09:30;;;;;;;22.10;8.95;;;19.20;99.90;;;;;;5106147;28;20058;-81
2021/07/27 01:12:00;;;;;;;14.35;7.32;;;19.20;99.90;;;;;;5110020;28;20043;-82
2021/07/27 01:14:28;;;;;;;16.98;7.75;;;19.20;99.90;;;;;;5122759;28;20036;-81
2021/07/27 01:16:57;;;;;;;19.50;7.95;;;19.20;99.90;;;;;;5136094;27;20051;-82
2021/07/27 01:39:24;;;;;;;14.38;7.82;;;19.30;99.90;;;;;;5124858;28;20098;-81
2021/07/27 01:42:13;;;;;;;15.15;8.45;;;19.20;99.90;;;;;;5105059;28;20047;-82
2021/07/27 01:44:46;;;;;;;18.30;9.45;;;20.00;99.90;;;;;;5119086;28;20048;-81
2021/07/27 01:47:18;;;;;;;22.95;8.32;;;19.20;99.90;;;;;;5118999;28;20047;-82
2021/07/27 01:49:47;;;;;;;20.13;8.18;;;19.20;99.90;;;;;;5124978;28;20048;-83
2021/07/27 01:52:17;;;;;;;17.90;8.32;;;19.20;99.90;;;;;;5126195;28;20040;-83
2021/07/27 01:54:51;;;;;;;14.85;7.40;;;19.20;99.90;;;;;;5123470;28;20312;-82
2021/07/27 01:57:23;;;;;;;17.98;9.20;;;19.20;99.90;;;;;;5103699;28;20055;-81
2021/07/27 02:00:02;;;;;;;16.33;8.10;;;19.20;99.90;;;;;;5104556;28;20062;-82
2021/07/27 02:02:32;;;;;;;23.52;8.15;;;19.20;99.90;;;;;;5123956;28;20035;-83
2021/07/27 02:05:00;;;;;;;17.27;8.00;;;19.20;99.90;;;;;;5124947;28;20044;-82
2021/07/27 02:07:28;;;;;;;18.67;10.20;;;19.20;99.90;;;;;;5087960;28;20052;-82
2021/07/27 02:10:04;;;;;;;14.40;7.45;;;19.20;99.90;;;;;;5114784;28;20051;-81
2021/07/27 02:12:38;;;;;;;18.20;8.27;;;19.20;99.90;;;;;;5122497;28;20047;-82
2021/07/27 02:15:07;;;;;;;17.65;8.85;;;19.20;99.90;;;;;;5127212;28;20040;-82
2021/07/27 02:17:37;;;;;;;19.48;9.30;;;19.20;99.90;;;;;;5125623;28;20289;-82
2021/07/27 02:20:06;;;;;;;15.93;8.18;;;19.20;99.90;;;;;;5126989;28;20048;-81
2021/07/27 02:22:36;;;;;;;23.13;9.20;;;19.20;99.90;;;;;;5120330;28;20048;-81
2021/07/27 02:25:05;;;;;;;18.17;7.78;;;19.10;99.90;;;;;;5087010;28;20062;-82
2021/07/27 02:27:34;;;;;;;18.60;8.27;;;19.10;99.90;;;;;;5103398;28;20059;-82
2021/07/27 02:30:04;;;;;;;25.27;10.25;;;19.10;99.90;;;;;;5105059;28;20036;-82
2021/07/27 02:32:33;;;;;;;18.25;8.45;;;19.10;99.90;;;;;;5104566;28;20048;-81
2021/07/27 02:35:02;;;;;;;18.70;9.80;;;19.10;99.90;;;;;;5118451;28;20059;-82
2021/07/27 02:37:31;;;;;;;16.80;8.52;;;19.10;99.90;;;;;;5124757;28;20049;-81
2021/07/27 02:39:59;;;;;;;16.30;9.27;;;19.10;99.90;;;;;;5124580;28;20048;-82
2021/07/27 02:42:28;;;;;;;19.80;9.18;;;19.00;99.90;;;;;;5117825;28;20062;-82
2021/07/27 02:44:56;;;;;;;22.48;10.57;;;19.10;99.90;;;;;;5122437;28;20054;-81
2021/07/27 02:47:27;;;;;;;20.63;9.40;;;19.00;99.90;;;;;;5085044;28;20052;-81
2021/07/27 02:49:56;;;;;;;22.17;9.88;;;19.10;99.90;;;;;;5119381;28;20048;-82
2021/07/27 02:52:24;;;;;;;23.98;12.65;;;19.00;99.90;;;;;;5096181;28;20059;-81
2021/07/27 02:54:52;;;;;;;20.65;11.25;;;19.00;99.90;;;;;;5103144;28;20552;-81
2021/07/27 02:57:21;;;;;;;22.42;11.73;;;18.90;99.90;;;;;;5118749;28;20047;-81
2021/07/27 02:59:56;;;;;;;23.73;11.68;;;19.00;99.90;;;;;;5123204;28;20055;-81
2021/07/27 03:02:37;;;;;;;22.02;10.23;;;18.90;99.90;;;;;;5118410;28;20046;-81
2021/07/27 03:05:07;;;;;;;17.95;9.48;;;19.00;99.90;;;;;;5107683;28;20048;-81
2021/07/27 03:07:48;;;;;;;25.98;11.07;;;18.90;99.90;;;;;;5123715;28;20047;-81
2021/07/27 03:10:17;;;;;;;25.27;12.00;;;18.90;99.90;;;;;;5116139;28;20048;-81
2021/07/27 03:12:53;;;;;;;18.55;10.60;;;18.90;99.90;;;;;;5104706;28;20044;-81
2021/07/27 03:15:26;;;;;;;24.55;12.35;;;18.90;99.90;;;;;;5117565;28;20047;-82
2021/07/27 03:17:58;;;;;;;23.67;13.23;;;18.80;99.90;;;;;;5124745;28;20051;-83
2021/07/27 03:20:32;;;;;;;29.10;11.70;;;18.80;99.90;;;;;;5112225;28;20056;-83
2021/07/27 03:23:01;;;;;;;24.13;13.25;;;18.80;99.90;;;;;;5116103;28;20048;-82
2021/07/27 03:25:30;;;;;;;18.63;9.32;;;18.70;99.90;;;;;;5112894;28;20051;-82
2021/07/27 03:27:58;;;;;;;20.88;11.02;;;18.70;99.90;;;;;;5116307;28;20043;-83
2021/07/27 03:30:26;;;;;;;15.38;7.20;;;17.50;99.90;;;;;;5108122;28;20027;-83
2021/07/27 03:32:54;;;;;;;21.60;9.88;;;18.50;99.90;;;;;;5103107;28;20052;-83
2021/07/27 03:35:24;;;;;;;15.63;6.93;;;18.40;99.90;;;;;;5105630;28;20054;-81
2021/07/27 03:37:54;;;;;;;15.82;6.25;;;18.40;99.90;;;;;;5107510;28;20124;-82
2021/07/27 03:40:28;;;;;;;12.40;5.40;;;18.50;99.90;;;;;;5119642;28;20039;-83
2021/07/27 03:42:57;;;;;;;14.95;5.38;;;17.20;99.90;;;;;;5117532;28;20050;-82
2021/07/27 03:45:25;;;;;;;9.02;3.72;;;18.30;99.90;;;;;;5127035;28;20039;-82
2021/07/27 03:47:53;;;;;;;10.80;4.18;;;18.30;99.90;;;;;;5127320;28;20050;-82
2021/07/27 03:50:22;;;;;;;8.27;3.97;;;18.20;99.90;;;;;;5127102;28;20047;-82
2021/07/27 03:52:51;;;;;;;4.93;3.13;;;18.10;99.90;;;;;;5125688;28;20061;-81
2021/07/27 03:55:19;;;;;;;6.22;3.13;;;18.10;99.90;;;;;;5120790;28;20055;-82
2021/07/27 03:57:47;;;;;;;5.40;2.33;;;18.10;99.90;;;;;;5108278;28;20052;-81
2021/07/27 04:00:15;;;;;;;5.50;2.70;;;18.00;99.90;;;;;;5126233;28;20050;-82
2021/07/27 04:02:44;;;;;;;8.10;2.60;;;17.90;99.90;;;;;;5124819;28;20047;-81
2021/07/27 04:05:12;;;;;;;9.63;2.72;;;17.90;99.90;;;;;;5106126;28;20538;-80
2021/07/27 04:07:43;;;;;;;4.97;2.22;;;17.80;99.90;;;;;;5117582;28;20043;-81
2021/07/27 04:10:11;;;;;;;5.70;1.90;;;17.80;99.90;;;;;;5124944;28;20432;-81
2021/07/27 04:12:40;;;;;;;5.20;2.17;;;17.70;99.90;;;;;;5125156;28;20050;-80
2021/07/27 04:15:08;;;;;;;3.17;1.80;;;17.70;99.90;;;;;;5125368;28;20054;-81
2021/07/27 04:17:37;;;;;;;4.82;1.73;;;17.60;99.90;;;;;;5125173;28;20455;-82
2021/07/27 04:20:05;;;;;;;2.55;1.35;;;17.50;99.90;;;;;;5122935;28;20054;-82
2021/07/27 04:22:33;;;;;;;5.38;2.17;;;17.50;99.90;;;;;;5124276;28;20358;-82
2021/07/27 04:25:04;;;;;;;5.97;2.03;;;17.40;99.90;;;;;;5122704;28;20407;-81
2021/07/27 04:27:32;;;;;;;3.88;1.83;;;17.40;99.90;;;;;;5113818;28;20048;-82
2021/07/27 04:30:00;;;;;;;3.13;2.22;;;17.40;99.90;;;;;;5096846;28;20051;-82
2021/07/27 04:32:29;;;;;;;2.50;1.50;;;17.40;99.90;;;;;;5127962;28;20262;-81
2021/07/27 04:34:57;;;;;;;3.38;1.70;;;17.40;99.90;;;;;;5116170;28;20039;-81
2021/07/27 04:37:26;;;;;;;3.92;1.83;;;17.40;99.90;;;;;;5107290;28;20055;-83
2021/07/27 04:39:54;;;;;;;3.05;1.42;;;17.40;99.90;;;;;;5128303;28;20039;-81
2021/07/27 04:42:22;;;;;;;2.88;1.75;;;17.50;99.90;;;;;;5122615;28;20059;-82
2021/07/27 04:44:55;;;;;;;7.07;2.47;;;17.30;99.90;;;;;;5121413;28;20098;-82
2021/07/27 04:47:23;;;;;;;6.18;2.13;;;17.50;99.90;;;;;;5099370;28;20052;-81
2021/07/27 04:49:52;;;;;;;5.82;1.60;;;17.50;99.90;;;;;;5124569;28;20046;-82
2021/07/27 04:52:21;;;;;;;6.45;2.10;;;17.50;99.90;;;;;;5126203;28;20043;-82
2021/07/27 04:54:52;;;;;;;3.60;2.17;;;17.50;99.90;;;;;;5106639;28;20055;-83
2021/07/27 04:57:21;;;;;;;3.83;1.80;;;17.50;99.90;;;;;;5107195;28;20063;-81
2021/07/27 04:59:50;;;;;;;4.43;2.25;;;17.60;99.90;;;;;;5120289;28;20036;-80
2021/07/27 05:02:18;;;;;;;3.80;2.10;;;17.50;99.90;;;;;;5117195;28;20048;-82
2021/07/27 05:04:46;;;;;;;3.55;1.92;;;16.50;99.90;;;;;;5111545;28;20048;-81
2021/07/27 05:07:16;;;;;;;5.13;1.75;;;17.60;99.90;;;;;;5123088;28;20040;-83
2021/07/27 05:09:46;;;;;;;10.48;2.22;;;17.70;99.90;;;;;;5107538;28;20051;-81
2021/07/27 05:12:16;;;;;;;5.68;2.35;;;17.30;99.90;;;;;;5122369;28;20059;-82
2021/07/27 05:14:45;;;;;;;3.22;2.00;;;17.70;99.90;;;;;;5116131;28;20048;-81
2021/07/27 05:17:16;;;;;;;4.53;2.40;;;17.80;99.90;;;;;;5105951;28;20447;-82
2021/07/27 05:19:51;;;;;;;5.00;1.83;;;17.80;99.90;;;;;;5129277;28;20120;-82
2021/07/27 05:22:23;;;;;;;5.10;2.42;;;17.80;99.90;;;;;;5109231;28;20518;-81
2021/07/27 05:24:52;;;;;;;;;;;17.90;99.90;;;;;;5126732;28;20538;-81
2021/07/27 05:27:24;;;;;;;4.43;2.60;;;17.90;99.90;;;;;;5124216;28;19932;-83
2021/07/27 05:29:54;;;;;;;16.92;2.42;;;18.00;99.90;;;;;;5122590;28;20047;-81
2021/07/27 05:32:23;;;;;;;5.88;2.17;;;18.10;99.90;;;;;;5124618;28;20515;-81
2021/07/27 05:34:53;;;;;;;5.63;1.88;;;18.00;99.90;;;;;;5125163;28;20047;-82
2021/07/27 05:37:22;;;;;;;5.28;2.60;;;18.10;99.90;;;;;;5123891;28;20047;-82
2021/07/27 05:39:52;;;;;;;2.15;1.50;;;18.20;99.90;;;;;;5124426;28;20203;-81
2021/07/27 05:42:20;;;;;;;4.45;1.83;;;18.20;99.90;;;;;;5123201;28;20058;-80
2021/07/27 05:44:48;;;;;;;3.17;1.70;;;18.30;99.90;;;;;;5124805;28;20050;-81
2021/07/27 05:47:20;;;;;;;2.70;1.70;;;18.30;99.90;;;;;;5116991;28;20610;-81
2021/07/27 05:49:50;;;;;;;5.70;2.25;;;18.30;99.90;;;;;;5122720;28;20502;-83
2021/07/27 05:52:21;;;;;;;6.97;2.55;;;18.40;99.90;;;;;;5124525;28;20057;-82
2021/07/27 05:54:51;;;;;;;4.03;1.70;;;18.50;99.90;;;;;;5103908;28;20630;-83
2021/07/27 05:57:19;;;;;;;4.15;1.88;;;18.50;99.90;;;;;;5085950;28;20052;-82
2021/07/27 05:59:48;;;;;;;6.05;2.35;;;18.50;99.90;;;;;;5121911;28;20062;-82
2021/07/27 06:02:21;;;;;;;3.97;1.98;;;18.50;99.90;;;;;;5111646;28;20117;-82
2021/07/27 06:04:50;;;;;;;3.72;1.80;;;18.50;99.90;;;;;;5118931;28;20040;-81
2021/07/27 06:07:18;;;;;;;6.13;1.80;;;18.60;99.90;;;;;;5116512;28;20052;-81
2021/07/27 06:09:48;;;;;;;3.00;1.77;;;18.60;99.90;;;;;;5121680;28;20051;-81
2021/07/27 06:12:17;;;;;;;5.55;2.10;;;18.60;99.90;;;;;;5118020;28;20047;-82
2021/07/27 06:14:45;;;;;;;5.78;2.22;;;18.60;99.90;;;;;;5118507;28;20051;-82
2021/07/27 06:17:14;;;;;;;5.43;2.35;;;18.60;99.90;;;;;;5106406;28;20059;-81
2021/07/27 06:19:42;;;;;;;5.55;2.42;;;18.60;99.90;;;;;;5109702;28;20043;-81
2021/07/27 06:22:10;;;;;;;5.32;3.45;;;18.10;99.90;;;;;;5114180;28;20044;-81
2021/07/27 06:24:39;;;;;;;7.07;2.80;;;18.70;99.90;;;;;;5110813;28;20048;-82
2021/07/27 06:27:07;;;;;;;3.85;1.67;;;18.70;99.90;;;;;;5117522;28;20048;-81
2021/07/27 06:29:38;;;;;;;5.30;1.90;;;18.70;99.90;;;;;;5122382;28;20035;-83
2021/07/27 06:32:09;;;;;;;6.93;2.38;;;18.80;99.90;;;;;;5103808;28;20062;-81
2021/07/27 06:34:37;;;;;;;3.78;1.88;;;18.70;99.90;;;;;;5125957;28;20051;-81
2021/07/27 06:37:06;;;;;;;5.85;1.98;;;18.80;99.90;;;;;;5124651;28;20043;-81
2021/07/27 06:39:38;;;;;;;6.38;2.92;;;18.80;99.90;;;;;;5108821;28;20048;-80
2021/07/27 06:42:08;;;;;;;4.40;1.75;;;18.80;99.90;;;;;;5120148;28;20051;-81
2021/07/27 06:44:36;;;;;;;6.82;2.08;;;18.80;99.90;;;;;;5122746;28;20044;-80
2021/07/27 06:47:08;;;;;;;6.00;2.10;;;18.80;99.90;;;;;;5116421;28;20043;-81
2021/07/27 06:49:37;;;;;;;5.05;1.90;;;18.80;99.90;;;;;;5109571;28;20043;-79
2021/07/27 06:52:05;;;;;;;8.05;2.45;;;18.80;99.90;;;;;;5123022;28;20046;-81
2021/07/27 06:54:34;;;;;;;9.57;3.58;;;18.90;99.90;;;;;;5122251;28;20055;-81
2021/07/27 06:57:05;;;;;;;7.38;3.30;;;18.90;99.90;;;;;;5107280;28;20520;-81
2021/07/27 06:59:33;;;;;;;8.27;4.03;;;18.90;99.90;;;;;;5103899;28;20054;-82
2021/07/27 07:02:02;;;;;;;5.68;1.75;;;18.90;99.90;;;;;;5111943;28;20035;-89
2021/07/27 07:04:32;;;;;;;4.30;1.77;;;18.90;99.90;;;;;;5112320;28;20050;-88
2021/07/27 07:07:03;;;;;;;7.45;3.35;;;19.10;99.90;;;;;;5128474;28;20043;-85
2021/07/27 07:09:32;;;;;;;4.57;2.28;;;19.10;99.90;;;;;;5107380;28;20058;-86
2021/07/27 07:12:01;;;;;;;9.23;2.97;;;18.30;99.90;;;;;;5109290;28;20040;-87
2021/07/27 07:14:29;;;;;;;9.18;3.05;;;19.30;99.90;;;;;;5098321;28;20055;-87
2021/07/27 07:17:00;;;;;;;8.00;2.67;;;19.40;99.90;;;;;;5102576;28;20056;-88
2021/07/27 07:19:29;;;;;;;9.35;2.95;;;19.40;99.90;;;;;;5104718;28;20044;-87
2021/07/27 07:21:58;;;;;;;4.90;2.63;;;19.50;99.90;;;;;;5097793;28;20044;-89
2021/07/27 07:24:26;;;;;;;7.60;2.85;;;19.50;99.90;;;;;;5119924;28;20055;-85
2021/07/27 07:26:55;;;;;;;7.03;2.80;;;19.60;99.90;;;;;;5114572;28;20051;-89
2021/07/27 07:29:23;;;;;;;8.40;2.85;;;19.60;99.90;;;;;;5118861;28;20369;-87
2021/07/27 07:31:51;;;;;;;5.97;2.95;;;19.60;99.90;;;;;;5099400;28;20044;-86
2021/07/27 07:34:19;;;;;;;10.07;3.90;;;19.80;99.90;;;;;;5122206;28;20050;-86
2021/07/27 07:36:50;;;;;;;6.78;3.00;;;19.70;99.90;;;;;;5114198;28;20061;-86
2021/07/27 07:39:18;;;;;;;7.97;2.45;;;19.70;99.90;;;;;;5111475;28;20047;-86
2021/07/27 07:41:46;;;;;;;8.05;2.80;;;19.80;99.90;;;;;;5103763;28;20052;-86
2021/07/27 07:44:14;;;;;;;4.53;2.17;;;19.80;99.90;;;;;;5122891;28;20055;-84
2021/07/27 07:46:43;;;;;;;4.90;2.20;;;20.00;99.90;;;;;;5103748;28;20051;-85
2021/07/27 07:49:12;;;;;;;8.38;2.25;;;20.00;99.90;;;;;;5106498;28;20059;-83
2021/07/27 07:51:47;;;;;;;5.85;2.55;;;20.00;99.90;;;;;;5120749;28;20054;-86
2021/07/27 07:54:18;;;;;;;7.70;2.72;;;20.10;99.90;;;;;;5103086;28;20043;-85
2021/07/27 07:56:48;;;;;;;9.00;2.95;;;18.90;99.90;;;;;;5112107;28;20043;-83
2021/07/27 07:59:17;;;;;;;8.35;2.80;;;20.10;99.90;;;;;;5119013;28;20411;-84
2021/07/27 08:01:48;;;;;;;4.80;2.20;;;19.90;99.90;;;;;;5082424;28;20043;-84
2021/07/27 08:04:16;;;;;;;6.40;2.97;;;20.00;99.90;;;;;;5086259;28;20070;-86
2021/07/27 08:06:45;;;;;;;6.90;2.15;;;19.90;99.90;;;;;;5113465;28;20039;-85
2021/07/27 08:09:14;;;;;;;7.25;2.75;;;19.80;99.90;;;;;;5111014;28;20054;-84
2021/07/27 08:11:42;;;;;;;4.80;2.58;;;19.80;99.90;;;;;;5100631;28;20055;-83
2021/07/27 08:14:11;;;;;;;4.95;2.30;;;19.80;99.90;;;;;;5097840;28;20040;-84
2021/07/27 08:16:39;;;;;;;8.30;2.55;;;19.80;99.90;;;;;;5116358;28;20059;-85
2021/07/27 08:19:09;;;;;;;4.55;2.45;;;19.90;99.90;;;;;;5118917;28;20048;-86
2021/07/27 08:21:42;;;;;;;8.38;2.40;;;20.00;99.90;;;;;;5113272;28;20048;-84
2021/07/27 08:24:13;;;;;;;6.22;2.35;;;19.90;99.90;;;;;;5100612;28;20051;-86
2021/07/27 08:26:42;;;;;;;4.72;2.33;;;20.00;99.90;;;;;;5098096;28;20046;-85
2021/07/27 08:29:10;;;;;;;2.95;1.95;;;20.10;99.90;;;;;;5115446;28;20047;-85
2021/07/27 08:31:40;;;;;;;4.90;2.53;;;20.30;99.90;;;;;;5110858;28;20058;-84
2021/07/27 08:34:16;;;;;;;9.95;2.13;;;20.30;99.90;;;;;;5108835;28;20052;-87
2021/07/27 08:36:47;;;;;;;4.75;2.15;;;20.50;99.90;;;;;;5096019;28;20052;-84
2021/07/27 08:39:15;;;;;;;;;;;20.40;99.90;;;;;;5115099;28;20066;-85
2021/07/27 08:41:46;;;;;;;8.93;2.70;;;20.60;99.70;;;;;;5086854;28;19923;-86
2021/07/27 08:44:20;;;;;;;5.55;2.67;;;20.80;99.90;;;;;;5112893;28;20051;-85
2021/07/27 08:46:50;;;;;;;5.43;2.40;;;20.90;99.90;;;;;;5097736;28;20043;-86
2021/07/27 08:49:18;;;;;;;7.07;2.50;;;21.00;99.90;;;;;;5125223;28;20360;-87
2021/07/27 08:51:47;;;;;;;6.90;2.70;;;21.10;99.60;;;;;;5097580;28;20044;-85
2021/07/27 08:54:16;;;;;;;7.25;2.08;;;21.20;99.50;;;;;;5101597;28;20060;-86
2021/07/27 08:56:46;;;;;;;9.05;2.45;;;21.20;99.30;;;;;;5099890;28;20052;-86
2021/07/27 08:59:15;;;;;;;5.35;2.50;;;21.30;99.30;;;;;;5113250;28;20052;-86
2021/07/27 09:01:44;;;;;;;10.40;3.40;;;21.30;99.30;;;;;;5096184;28;20039;-87
2021/07/27 09:04:30;;;;;;;6.20;2.30;;;21.40;99.30;;;;;;5121239;28;20048;-85
2021/07/27 09:07:01;;;;;;;6.10;2.42;;;21.40;98.90;;;;;;5097544;28;20040;-85
2021/07/27 09:09:31;;;;;;;6.40;2.17;;;21.40;99.10;;;;;;5119079;28;20050;-85
2021/07/27 09:12:03;;;;;;;6.57;1.98;;;21.40;99.10;;;;;;5095813;28;20636;-87
2021/07/27 09:14:33;;;;;;;4.28;2.28;;;21.40;99.10;;;;;;5117185;28;20044;-87
2021/07/27 09:17:04;;;;;;;6.65;2.08;;;21.50;99.20;;;;;;5115433;28;20044;-87
2021/07/27 09:19:42;;;;;;;5.45;2.33;;;21.50;99.30;;;;;;5116792;28;20058;-85
2021/07/27 09:22:13;;;;;;;4.18;2.33;;;21.60;99.50;;;;;;5108444;28;20404;-86
2021/07/27 09:24:41;;;;;;;4.68;2.28;;;21.60;99.30;;;;;;5093856;28;20040;-87
2021/07/27 09:27:09;;;;;;;3.53;2.50;;;21.80;99.40;;;;;;5122171;28;20054;-87
2021/07/27 09:29:51;;;;;;;4.85;2.20;;;21.90;99.10;;;;;;5112471;28;20048;-87
2021/07/27 09:32:29;;;;;;;6.38;1.95;;;22.10;98.40;;;;;;5101903;28;20051;-85
2021/07/27 09:35:05;;;;;;;5.80;2.53;;;22.10;98.70;;;;;;5118156;28;20044;-87
2021/07/27 09:37:35;;;;;;;5.45;1.70;;;22.20;98.50;;;;;;5114809;28;20052;-87
2021/07/27 09:40:08;;;;;;;4.25;1.50;;;22.20;98.80;;;;;;5087572;28;20051;-86
2021/07/27 09:42:38;;;;;;;5.60;2.17;;;22.30;98.30;;;;;;5114678;28;20051;-86
2021/07/27 09:45:10;;;;;;;5.60;2.45;;;22.40;98.50;;;;;;5107044;28;20066;-88
2021/07/27 09:47:41;;;;;;;6.68;4.22;;;22.50;98.50;;;;;;5105104;28;20047;-86
2021/07/27 09:50:10;;;;;;;4.47;1.80;;;22.50;98.40;;;;;;5107479;28;20052;-87
2021/07/27 09:52:47;;;;;;;5.22;1.90;;;22.60;98.30;;;;;;5120724;28;20266;-88
2021/07/27 09:55:23;;;;;;;4.32;2.15;;;23.40;98.20;;;;;;5137842;27;20042;-85
2021/07/27 09:58:05;;;;;;;6.03;2.58;;;22.70;97.50;;;;;;5101139;28;20047;-85
2021/07/27 10:00:49;;;;;;;6.65;2.63;;;21.80;97.70;;;;;;5121216;28;20054;-86
2021/07/27 10:03:32;;;;;;;4.40;1.92;;;22.70;97.60;;;;;;5119024;28;20044;-87
2021/07/27 10:06:05;;;;;;;8.98;2.30;;;22.60;97.50;;;;;;5084197;28;20122;-86
2021/07/27 10:08:38;;;;;;;5.20;2.40;;;22.50;97.00;;;;;;5088580;28;20042;-86
2021/07/27 10:11:12;;;;;;;5.13;2.75;;;22.50;97.50;;;;;;5085844;28;20051;-85
2021/07/27 10:13:46;;;;;;;9.20;3.10;;;22.50;97.40;;;;;;5100871;28;20047;-87
2021/07/27 10:16:29;;;;;;;5.05;2.28;;;22.60;97.70;;;;;;5118256;28;20177;-88
2021/07/27 10:19:00;;;;;;;5.10;2.47;;;22.60;97.70;;;;;;5121948;28;20064;-86
2021/07/27 10:21:37;;;;;;;6.63;3.05;;;22.40;97.80;;;;;;5105541;28;20051;-88
2021/07/27 10:24:20;;;;;;;5.88;2.45;;;22.80;97.90;;;;;;5117138;28;20048;-86
2021/07/27 10:26:52;;;;;;;6.80;2.88;;;22.80;97.40;;;;;;5121578;28;20045;-86
2021/07/27 10:29:30;;;;;;;6.78;2.95;;;22.90;97.90;;;;;;5103773;28;20040;-87
2021/07/27 10:32:17;;;;;;;5.68;3.33;;;22.90;97.60;;;;;;5116612;28;20063;-85
2021/07/27 10:34:47;;;;;;;6.85;2.70;;;23.00;97.70;;;;;;5119018;28;20031;-86
2021/07/27 10:37:18;;;;;;;6.75;2.53;;;23.00;97.70;;;;;;5116699;28;20047;-87
2021/07/27 10:39:53;;;;;;;4.45;2.47;;;23.10;97.70;;;;;;5117677;28;20043;-85
2021/07/27 10:42:38;;;;;;;5.72;2.78;;;23.10;97.70;;;;;;5082808;28;20056;-86
2021/07/27 10:45:19;;;;;;;6.90;3.42;;;23.10;97.40;;;;;;5084728;28;20063;-87
2021/07/27 10:47:52;;;;;;;7.13;3.22;;;23.20;97.10;;;;;;5110243;28;20048;-87
2021/07/27 10:50:31;;;;;;;5.43;2.80;;;23.20;97.30;;;;;;5117785;28;20052;-84
2021/07/27 10:53:06;;;;;;;8.05;2.47;;;23.40;97.20;;;;;;5078580;28;20058;-85
2021/07/27 10:55:37;;;;;;;5.82;2.85;;;23.40;97.40;;;;;;5119307;28;20034;-85
2021/07/27 10:58:09;;;;;;;8.30;3.47;;;23.50;97.40;;;;;;5118550;28;20064;-86
2021/07/27 11:00:38;;;;;;;4.10;2.28;;;23.70;97.40;;;;;;5118039;28;20075;-87
2021/07/27 11:03:07;;;;;;;9.73;3.88;;;23.80;97.20;;;;;;5093768;28;20047;-87
2021/07/27 11:05:39;;;;;;;;;;;24.00;96.90;;;;;;5113878;28;20044;-87
2021/07/27 11:08:22;;;;;;;7.95;2.97;;;24.30;96.10;;;;;;5105425;28;19930;-86
2021/07/27 11:11:06;;;;;;;7.63;3.00;;;24.30;95.50;;;;;;5106192;28;20044;-87
2021/07/27 11:13:37;;;;;;;9.15;3.35;;;24.30;96.10;;;;;;5116947;28;20052;-86
2021/07/27 11:16:07;;;;;;;7.47;2.72;;;24.30;96.00;;;;;;5131709;28;20051;-87
2021/07/27 11:18:43;;;;;;;5.82;3.05;;;24.30;95.80;;;;;;5094165;28;20039;-89
2021/07/27 11:21:15;;;;;;;8.48;2.25;;;23.50;95.10;;;;;;5121170;28;20066;-89
2021/07/27 11:23:49;;;;;;;6.65;2.78;;;24.30;95.30;;;;;;5104476;28;20050;-86
2021/07/27 11:26:19;;;;;;;3.60;2.47;;;24.30;95.10;;;;;;5076153;28;20050;-87
2021/07/27 11:28:47;;;;;;;5.15;2.50;;;24.30;95.60;;;;;;5069762;28;20054;-84
2021/07/27 11:31:21;;;;;;;7.80;3.28;;;24.30;95.10;;;;;;5094523;28;20059;-89
2021/07/27 11:33:54;;;;;;;17.15;4.72;;;24.20;95.10;;;;;;5121862;28;20040;-90
2021/07/27 11:36:26;;;;;;;10.40;3.17;;;23.40;95.20;;;;;;5120382;28;20047;-86
2021/07/27 11:39:07;;;;;;;7.88;3.92;;;24.10;95.60;;;;;;5116355;28;20060;-89
2021/07/27 11:41:36;;;;;;;13.85;3.08;;;24.20;95.70;;;;;;5086461;28;20309;-89
2021/07/27 11:44:06;;;;;;;13.38;3.22;;;24.20;95.70;;;;;;5113764;28;20071;-87
2021/07/27 11:46:38;;;;;;;9.32;3.45;;;24.20;95.50;;;;;;5096517;28;20484;-87
2021/07/27 11:49:11;;;;;;;6.60;2.40;;;24.30;95.70;;;;;;5119256;28;20039;-87
2021/07/27 11:51:45;;;;;;;15.07;4.30;;;24.40;95.90;;;;;;5121752;28;20054;-88
2021/07/27 11:54:25;;;;;;;11.90;2.90;;;24.30;96.10;;;;;;5121248;28;20301;-87
2021/07/27 11:56:56;;;;;;;7.60;3.47;;;24.20;95.80;;;;;;5119636;28;20044;-88
2021/07/27 11:59:29;;;;;;;5.93;3.00;;;24.40;96.00;;;;;;5100729;28;20061;-86
2021/07/27 12:02:01;;;;;;;7.03;3.50;;;24.20;95.80;;;;;;5107175;28;20048;-85
2021/07/27 12:04:30;;;;;;;12.30;3.65;;;24.10;96.10;;;;;;5104011;28;20051;-86
2021/07/27 12:07:02;;;;;;;5.70;2.90;;;23.60;96.00;;;;;;5097368;28;20035;-87
2021/07/27 12:09:31;;;;;;;7.38;3.47;;;23.10;96.70;;;;;;5112195;28;20050;-84
2021/07/27 12:12:00;;;;;;;6.63;3.50;;;22.50;98.70;;;;;;5101779;28;20062;-82
2021/07/27 12:14:30;;;;;;;7.97;3.83;;;21.90;99.40;;;;;;5117836;28;20047;-84
2021/07/27 12:16:58;;;;;;;11.88;4.50;;;21.50;99.90;;;;;;5106425;28;20056;-82
2021/07/27 12:19:30;;;;;;;7.47;3.47;;;21.10;99.90;;;;;;5109361;28;20054;-82
2021/07/27 12:22:18;;;;;;;;;;;;;;;;;;;;;
2021/07/27 12:25:31;;;;;;;11.85;5.57;;;20.60;99.90;;;;;;5097856;28;20047;-84
2021/07/27 12:28:07;;;;;;;13.82;6.03;;;20.50;99.90;;;;;;5114121;28;20058;-83
2021/07/27 12:30:42;;;;;;;15.02;5.25;;;20.30;99.90;;;;;;5112035;28;20032;-84
2021/07/27 12:33:11;;;;;;;13.35;6.07;;;20.30;99.90;;;;;;5095430;28;20055;-84
2021/07/27 12:35:52;;;;;;;18.70;6.70;;;20.20;99.90;;;;;;5096323;28;20451;-84
2021/07/27 12:38:25;;;;;;;12.27;6.55;;;20.20;99.90;;;;;;5112047;28;20063;-85
2021/07/27 12:41:03;;;;;;;10.90;6.70;;;20.20;99.90;;;;;;5097309;28;20471;-84
2021/07/27 12:43:41;;;;;;;13.35;6.22;;;20.10;99.90;;;;;;5118509;28;20047;-86
2021/07/27 12:46:12;;;;;;;14.13;6.43;;;20.40;99.90;;;;;;5086352;28;20055;-86
2021/07/27 12:48:40;;;;;;;16.88;5.57;;;20.50;99.90;;;;;;5121862;28;20039;-85
2021/07/27 12:51:14;;;;;;;15.82;6.50;;;20.50;99.90;;;;;;5102650;28;20051;-87
2021/07/27 12:53:45;;;;;;;15.55;7.68;;;20.60;99.90;;;;;;5124005;28;20070;-85
2021/07/27 12:56:27;;;;;;;14.52;7.53;;;20.70;99.90;;;;;;5105433;28;20052;-88
2021/07/27 12:58:58;;;;;;;13.38;7.10;;;20.90;99.90;;;;;;5105245;28;20039;-86
2021/07/27 13:01:28;;;;;;;13.13;6.57;;;21.10;99.90;;;;;;5112061;28;20090;-87
2021/07/27 13:04:03;;;;;;;18.35;9.00;;;21.20;99.90;;;;;;5114846;28;20035;-85
2021/07/27 13:06:35;;;;;;;10.18;4.65;;;21.30;99.90;;;;;;5108660;28;20043;-85
2021/07/27 13:09:04;;;;;;;12.07;4.78;;;21.30;99.90;;;;;;5096648;28;20066;-87
2021/07/27 13:11:32;;;;;;;11.40;5.47;;;21.20;99.90;;;;;;5116394;28;20051;-86
2021/07/27 13:14:00;;;;;;;11.73;4.60;;;21.10;99.90;;;;;;5119690;28;20032;-87
2021/07/27 13:16:28;;;;;;;12.15;4.70;;;21.10;99.90;;;;;;5117673;28;20039;-85
2021/07/27 13:19:03;;;;;;;16.52;7.15;;;21.10;99.90;;;;;;5133093;27;20052;-82
2021/07/27 13:21:33;;;;;;;12.60;5.55;;;21.20;99.90;;;;;;5115152;28;20040;-84
2021/07/27 13:24:04;;;;;;;13.23;6.75;;;21.00;99.90;;;;;;5124915;28;20523;-84